Time;durP1;ratioP1;P1;durP2;ratioP2;P2;SDS_P1;SDS_P2;PMS_P1;PMS_P2;Temp;Humidity;BMP_temperature;BMP_pressure;BME280_temperature;BME280_humidity;BME280_pressure;Samples;Min_cycle;Max_cycle;Signal;HPM_P1;HPM_P2
2023/08/06 00:01:21;;;;;;;6.78;3.45;;;19.60;99.90;;;;;;4918245;29;20098;-74
2023/08/06 00:03:48;;;;;;;8.55;3.63;;;19.70;99.90;;;;;;4902889;29;20044;-75
2023/08/06 00:06:15;;;;;;;8.68;3.25;;;19.80;99.90;;;;;;4915305;29;20052;-75
2023/08/06 00:08:43;;;;;;;6.95;4.05;;;19.90;99.90;;;;;;4914981;29;20131;-74
2023/08/06 00:11:10;;;;;;;8.15;3.67;;;19.80;99.90;;;;;;4915515;29;20483;-74
2023/08/06 00:13:37;;;;;;;5.68;3.30;;;19.80;99.90;;;;;;4914893;29;20124;-74
2023/08/06 00:16:14;;;;;;;6.32;3.10;;;19.60;99.90;;;;;;4914937;29;20087;-74
2023/08/06 00:18:41;;;;;;;6.85;3.63;;;19.20;99.90;;;;;;4913735;29;20081;-75
2023/08/06 00:21:09;;;;;;;6.82;3.38;;;19.50;99.90;;;;;;4915087;29;20048;-75
2023/08/06 00:23:36;;;;;;;5.40;3.38;;;19.60;99.90;;;;;;4914657;29;20120;-74
2023/08/06 00:26:03;;;;;;;5.88;3.33;;;19.50;99.90;;;;;;4914814;29;20400;-75
2023/08/06 00:28:30;;;;;;;5.43;3.47;;;19.60;99.90;;;;;;4914468;29;20052;-74
2023/08/06 00:30:58;;;;;;;5.72;3.42;;;19.50;99.90;;;;;;4918798;29;20123;-74
2023/08/06 00:33:25;;;;;;;8.68;3.55;;;19.50;99.90;;;;;;4918508;29;20131;-76
2023/08/06 00:35:52;;;;;;;6.80;3.70;;;19.60;99.90;;;;;;4918623;29;20062;-74
2023/08/06 00:38:20;;;;;;;10.07;5.03;;;19.60;99.90;;;;;;4918379;29;20143;-74
2023/08/06 00:40:49;;;;;;;10.63;6.30;;;19.70;99.90;;;;;;4918391;29;20195;-73
2023/08/06 00:43:17;;;;;;;11.38;5.90;;;19.70;99.90;;;;;;4917998;29;20056;-74
2023/08/06 00:45:44;;;;;;;8.38;5.18;;;19.60;99.90;;;;;;4918056;29;20048;-74
2023/08/06 00:48:11;;;;;;;12.57;5.63;;;19.60;99.90;;;;;;4910951;29;20052;-73
2023/08/06 00:50:39;;;;;;;9.55;5.78;;;19.60;99.90;;;;;;4918624;29;20131;-75
2023/08/06 00:53:06;;;;;;;12.00;6.13;;;19.70;99.90;;;;;;4918433;29;20496;-75
2023/08/06 00:55:34;;;;;;;12.13;6.43;;;19.80;99.90;;;;;;4918620;29;20127;-74
2023/08/06 00:58:02;;;;;;;8.40;5.22;;;19.80;99.90;;;;;;4901292;29;20079;-73
2023/08/06 01:00:29;;;;;;;8.32;5.30;;;19.80;99.90;;;;;;4930552;29;20056;-76
2023/08/06 01:02:57;;;;;;;9.55;5.47;;;19.50;99.90;;;;;;4918075;29;20056;-75
2023/08/06 01:05:24;;;;;;;9.05;5.40;;;19.40;99.90;;;;;;4917989;29;20051;-73
2023/08/06 01:08:44;;;;;;;11.52;5.55;;;19.60;99.90;;;;;;4917723;29;20052;-74
2023/08/06 01:12:17;;;;;;;10.85;5.45;;;19.70;99.90;;;;;;4894135;29;20052;-75
2023/08/06 01:14:55;;;;;;;9.38;4.82;;;19.60;99.90;;;;;;4891787;29;20489;-74
2023/08/06 01:17:26;;;;;;;9.50;5.57;;;19.60;99.90;;;;;;4896742;29;20060;-73
2023/08/06 01:19:54;;;;;;;7.70;4.78;;;19.70;99.90;;;;;;4879523;29;20108;-74
2023/08/06 01:22:21;;;;;;;7.82;4.93;;;19.60;99.90;;;;;;4904182;29;20060;-74
2023/08/06 01:24:50;;;;;;;11.07;4.90;;;19.60;99.90;;;;;;4915723;29;20143;-74
2023/08/06 01:27:33;;;;;;;8.85;4.65;;;19.60;99.90;;;;;;4917292;29;20127;-75
2023/08/06 01:30:15;;;;;;;8.32;4.13;;;19.50;99.90;;;;;;4908352;29;20059;-74
2023/08/06 01:32:46;;;;;;;7.55;4.25;;;19.50;99.90;;;;;;4917355;29;20056;-75
2023/08/06 01:35:20;;;;;;;9.13;4.38;;;19.60;99.90;;;;;;4917348;29;20052;-72
2023/08/06 01:37:52;;;;;;;9.52;4.50;;;19.40;99.90;;;;;;4901183;29;20040;-73
2023/08/06 01:40:29;;;;;;;7.32;3.80;;;19.40;99.90;;;;;;4916481;29;20056;-75
2023/08/06 01:42:56;;;;;;;6.80;4.15;;;19.50;99.90;;;;;;4917588;29;20096;-74
2023/08/06 01:45:23;;;;;;;9.57;4.50;;;19.60;99.90;;;;;;4916812;29;20060;-75
2023/08/06 01:47:51;;;;;;;6.78;4.13;;;19.60;99.90;;;;;;4914782;29;20052;-74
2023/08/06 01:50:18;;;;;;;8.18;4.03;;;19.70;99.90;;;;;;4916342;29;20059;-74
2023/08/06 01:52:46;;;;;;;6.30;3.83;;;19.80;99.90;;;;;;4917515;29;20139;-75
2023/08/06 01:55:13;;;;;;;7.15;3.90;;;19.80;99.90;;;;;;4916849;29;20054;-74
2023/08/06 01:57:40;;;;;;;7.18;3.80;;;19.60;99.90;;;;;;4917171;29;20048;-74
2023/08/06 02:00:08;;;;;;;6.70;4.03;;;19.60;99.90;;;;;;4927696;29;20048;-74
2023/08/06 02:02:35;;;;;;;6.93;4.07;;;19.60;99.90;;;;;;4917776;29;20052;-74
2023/08/06 02:05:03;;;;;;;8.18;3.92;;;19.70;99.90;;;;;;4914241;29;20064;-72
2023/08/06 02:07:30;;;;;;;8.18;3.78;;;19.60;99.90;;;;;;4900672;29;20057;-76
2023/08/06 02:09:58;;;;;;;8.25;4.10;;;19.70;99.90;;;;;;4914038;29;20084;-75
2023/08/06 02:12:34;;;;;;;8.02;3.97;;;19.80;99.90;;;;;;4899449;29;20076;-75
2023/08/06 02:15:13;;;;;;;6.15;3.67;;;19.60;99.90;;;;;;4895300;29;20144;-73
2023/08/06 02:17:40;;;;;;;7.10;4.13;;;19.60;99.90;;;;;;4908328;29;20067;-76
2023/08/06 02:20:08;;;;;;;7.05;3.88;;;19.60;99.90;;;;;;4916043;29;20086;-75
2023/08/06 02:22:36;;;;;;;10.40;6.60;;;19.60;99.90;;;;;;4904655;29;20092;-75
2023/08/06 02:25:03;;;;;;;10.75;5.90;;;19.20;99.90;;;;;;4909953;29;20129;-76
2023/08/06 02:27:30;;;;;;;9.40;5.53;;;18.90;99.90;;;;;;4900711;29;20052;-74
2023/08/06 02:29:58;;;;;;;12.60;5.07;;;18.80;99.90;;;;;;4909226;29;20390;-73
2023/08/06 02:32:26;;;;;;;8.75;5.13;;;19.00;99.90;;;;;;4912338;29;20044;-73
2023/08/06 02:34:55;;;;;;;11.23;5.35;;;19.10;99.90;;;;;;4916367;29;20127;-74
2023/08/06 02:37:22;;;;;;;8.00;5.20;;;19.00;99.90;;;;;;4916292;29;20068;-74
2023/08/06 02:39:50;;;;;;;9.63;5.65;;;18.90;99.90;;;;;;4916789;29;20103;-74
2023/08/06 02:42:17;;;;;;;8.45;4.85;;;18.80;99.90;;;;;;4899431;29;20386;-75
2023/08/06 02:44:45;;;;;;;9.32;5.28;;;18.80;99.90;;;;;;4916426;29;20132;-75
2023/08/06 02:47:12;;;;;;;8.43;4.85;;;18.90;99.90;;;;;;4915263;29;20044;-74
2023/08/06 02:49:39;;;;;;;7.40;4.40;;;19.10;99.90;;;;;;4915802;29;20079;-74
2023/08/06 02:52:07;;;;;;;8.77;3.72;;;19.30;99.90;;;;;;4915618;29;20147;-73
2023/08/06 02:54:34;;;;;;;7.30;3.67;;;19.30;99.90;;;;;;4916070;29;20500;-74
2023/08/06 02:57:01;;;;;;;5.68;3.65;;;19.40;99.90;;;;;;4916087;29;20044;-73
2023/08/06 02:59:29;;;;;;;5.30;3.33;;;19.40;99.90;;;;;;4922271;29;20058;-73
2023/08/06 03:01:56;;;;;;;6.70;3.10;;;19.30;99.90;;;;;;4917825;29;20066;-73
2023/08/06 03:04:23;;;;;;;8.77;3.60;;;18.90;99.90;;;;;;4915792;29;20408;-73
2023/08/06 03:06:51;;;;;;;7.30;3.72;;;18.50;99.90;;;;;;4915495;29;20064;-73
2023/08/06 03:09:18;;;;;;;5.22;3.35;;;18.70;99.90;;;;;;4915913;29;20111;-72
2023/08/06 03:11:45;;;;;;;8.43;3.35;;;19.00;99.90;;;;;;4915882;29;20048;-73
2023/08/06 03:14:12;;;;;;;7.85;3.67;;;18.90;99.90;;;;;;4915724;29;20130;-73
2023/08/06 03:16:40;;;;;;;6.88;3.50;;;19.00;99.90;;;;;;4915595;29;20140;-73
2023/08/06 03:19:07;;;;;;;7.13;3.65;;;18.90;99.90;;;;;;4915736;29;20060;-75
2023/08/06 03:21:34;;;;;;;6.38;3.60;;;18.30;99.90;;;;;;4915396;29;20051;-75
2023/08/06 03:24:01;;;;;;;8.77;3.92;;;17.60;99.90;;;;;;4915497;29;20056;-74
2023/08/06 03:26:30;;;;;;;9.10;3.97;;;17.50;99.90;;;;;;4914983;29;20115;-73
2023/08/06 03:28:57;;;;;;;5.70;3.92;;;17.50;99.90;;;;;;4915512;29;20484;-74
2023/08/06 03:31:24;;;;;;;7.38;4.55;;;17.50;99.90;;;;;;4915537;29;20048;-75
2023/08/06 03:33:52;;;;;;;6.82;4.40;;;17.70;99.90;;;;;;4914829;29;20062;-74
2023/08/06 03:36:19;;;;;;;11.32;4.32;;;18.00;99.90;;;;;;4915448;29;20140;-75
2023/08/06 03:38:47;;;;;;;7.97;4.68;;;17.90;99.90;;;;;;4915370;29;20060;-75
2023/08/06 03:41:14;;;;;;;10.05;4.78;;;18.10;99.90;;;;;;4914950;29;20059;-75
2023/08/06 03:43:42;;;;;;;8.98;4.78;;;18.20;99.90;;;;;;4915359;29;20119;-72
2023/08/06 03:46:09;;;;;;;8.77;5.15;;;18.10;99.90;;;;;;4915370;29;20052;-73
2023/08/06 03:48:36;;;;;;;7.30;4.30;;;18.10;99.90;;;;;;4915077;29;20078;-74
2023/08/06 03:51:03;;;;;;;7.63;4.65;;;18.10;99.90;;;;;;4915239;29;20159;-71
2023/08/06 03:53:31;;;;;;;8.65;4.40;;;18.50;99.90;;;;;;4898162;29;20062;-73
2023/08/06 03:55:59;;;;;;;5.97;4.10;;;18.80;99.90;;;;;;4914943;29;20158;-73
2023/08/06 03:58:27;;;;;;;8.10;4.35;;;18.90;99.90;;;;;;4915200;29;20108;-73
2023/08/06 04:01:02;;;;;;;6.63;4.13;;;19.00;99.90;;;;;;4904983;29;20642;-74
2023/08/06 04:03:29;;;;;;;9.00;4.45;;;18.80;99.90;;;;;;4914316;29;20036;-74
2023/08/06 04:05:57;;;;;;;7.03;4.30;;;18.90;99.90;;;;;;4915042;29;20444;-74
2023/08/06 04:08:24;;;;;;;8.98;4.90;;;18.90;99.90;;;;;;4914771;29;20127;-73
2023/08/06 04:10:54;;;;;;;8.38;4.93;;;19.20;99.90;;;;;;4914966;29;20056;-72
2023/08/06 04:13:21;;;;;;;9.30;5.03;;;19.30;99.90;;;;;;4914922;29;20099;-72
2023/08/06 04:15:48;;;;;;;11.07;5.55;;;19.40;99.90;;;;;;4914769;29;20056;-72
2023/08/06 04:18:16;;;;;;;8.63;5.70;;;19.30;99.90;;;;;;4897569;29;20048;-72
2023/08/06 04:20:49;;;;;;;10.10;5.60;;;19.30;99.90;;;;;;4915081;29;20492;-73
2023/08/06 04:23:17;;;;;;;12.55;5.90;;;19.10;99.90;;;;;;4886295;29;20066;-72
2023/08/06 04:25:47;;;;;;;8.73;5.45;;;19.20;99.90;;;;;;4914455;29;20060;-73
2023/08/06 04:28:14;;;;;;;9.10;5.47;;;19.10;99.90;;;;;;4914927;29;20506;-71
2023/08/06 04:30:42;;;;;;;10.25;5.70;;;19.20;99.90;;;;;;4909416;29;20052;-74
2023/08/06 04:33:10;;;;;;;36.03;24.48;;;19.30;99.90;;;;;;4900987;29;20052;-74
2023/08/06 04:35:37;;;;;;;21.73;14.65;;;19.40;99.90;;;;;;4901467;29;20429;-73
2023/08/06 04:38:04;;;;;;;44.92;26.48;;;19.40;99.90;;;;;;4914377;29;20052;-73
2023/08/06 04:40:35;;;;;;;23.75;15.68;;;19.50;99.90;;;;;;4914284;29;20049;-74
2023/08/06 04:43:03;;;;;;;15.60;9.52;;;19.50;99.90;;;;;;4898062;29;20131;-74
2023/08/06 04:45:30;;;;;;;13.88;8.30;;;19.40;99.90;;;;;;4911390;29;20071;-74
2023/08/06 04:47:57;;;;;;;16.48;9.15;;;19.30;99.90;;;;;;4914477;29;20131;-74
2023/08/06 04:50:24;;;;;;;40.42;25.27;;;19.30;99.90;;;;;;4915303;29;20423;-75
2023/08/06 04:52:52;;;;;;;61.70;40.17;;;19.30;99.90;;;;;;4886973;29;20516;-75
2023/08/06 04:55:19;;;;;;;34.08;21.40;;;19.40;99.90;;;;;;4909656;29;20071;-74
2023/08/06 04:57:47;;;;;;;54.65;37.28;;;19.40;99.90;;;;;;4905756;29;20505;-75
2023/08/06 05:00:14;;;;;;;89.90;54.42;;;19.40;99.90;;;;;;4911247;29;20051;-74
2023/08/06 05:02:41;;;;;;;50.65;32.08;;;19.30;99.90;;;;;;4898159;29;20064;-76
2023/08/06 05:05:08;;;;;;;19.70;12.38;;;19.40;99.90;;;;;;4905714;29;20052;-74
2023/08/06 05:07:36;;;;;;;17.48;11.70;;;19.40;99.90;;;;;;4911480;29;20056;-74
2023/08/06 05:10:04;;;;;;;17.98;9.98;;;19.40;99.90;;;;;;4912297;29;20123;-73
2023/08/06 05:12:31;;;;;;;16.00;9.85;;;19.40;99.90;;;;;;4898581;29;20053;-73
2023/08/06 05:14:58;;;;;;;15.43;8.20;;;19.40;99.90;;;;;;4900844;29;20060;-73
2023/08/06 05:17:27;;;;;;;13.52;7.88;;;19.50;99.90;;;;;;4903328;29;20052;-73
2023/08/06 05:19:54;;;;;;;19.05;8.18;;;19.40;99.90;;;;;;4910730;29;20044;-73
2023/08/06 05:22:21;;;;;;;12.43;7.22;;;19.50;99.90;;;;;;4911669;29;20563;-73
2023/08/06 05:24:49;;;;;;;16.60;7.00;;;19.60;99.90;;;;;;4909111;29;20472;-73
2023/08/06 05:27:18;;;;;;;11.70;7.07;;;19.70;99.90;;;;;;4910066;29;20139;-73
2023/08/06 05:29:46;;;;;;;12.97;7.10;;;19.80;99.90;;;;;;4915739;29;20176;-73
2023/08/06 05:32:13;;;;;;;14.73;7.28;;;19.70;99.90;;;;;;4903210;29;20457;-72
2023/08/06 05:34:41;;;;;;;12.30;7.43;;;19.80;99.90;;;;;;4912981;29;20524;-73
2023/08/06 05:37:09;;;;;;;15.43;7.60;;;19.80;99.90;;;;;;4910735;29;20139;-73
2023/08/06 05:39:36;;;;;;;13.35;7.90;;;19.80;99.90;;;;;;4900761;29;20397;-72
2023/08/06 05:42:04;;;;;;;12.32;7.38;;;19.90;99.90;;;;;;4900634;29;20096;-74
2023/08/06 05:44:31;;;;;;;13.65;7.93;;;19.80;99.90;;;;;;4916079;29;20048;-75
2023/08/06 05:46:58;;;;;;;11.93;7.00;;;19.90;99.90;;;;;;4916553;29;20401;-74
2023/08/06 05:49:26;;;;;;;11.77;7.07;;;19.40;99.90;;;;;;4901478;29;20055;-73
2023/08/06 05:51:53;;;;;;;15.30;8.30;;;19.20;99.90;;;;;;4915472;29;20087;-74
2023/08/06 05:54:21;;;;;;;11.70;7.30;;;19.50;99.90;;;;;;4924691;29;20513;-74
2023/08/06 05:56:48;;;;;;;13.57;8.15;;;19.70;99.90;;;;;;4916680;29;20052;-73
2023/08/06 05:59:15;;;;;;;13.52;7.63;;;19.80;99.90;;;;;;4923326;29;20183;-72
2023/08/06 06:01:43;;;;;;;23.08;15.07;;;19.70;99.90;;;;;;4919823;29;20143;-73
2023/08/06 06:04:10;;;;;;;60.95;38.35;;;19.90;99.90;;;;;;4921811;29;20075;-74
2023/08/06 06:06:37;;;;;;;22.30;13.40;;;19.90;99.90;;;;;;4916450;29;20075;-75
2023/08/06 06:09:04;;;;;;;11.73;8.38;;;19.80;99.90;;;;;;4917106;29;20155;-75
2023/08/06 06:11:32;;;;;;;12.07;7.10;;;19.70;99.90;;;;;;4899346;29;20519;-74
2023/08/06 06:13:59;;;;;;;11.88;7.45;;;19.70;99.90;;;;;;4912872;29;20068;-75
2023/08/06 06:16:26;;;;;;;12.13;7.95;;;19.60;99.90;;;;;;4908504;29;20063;-75
2023/08/06 06:18:54;;;;;;;15.02;7.75;;;19.60;99.90;;;;;;4909231;29;20066;-75
2023/08/06 06:21:22;;;;;;;12.82;7.13;;;19.70;99.90;;;;;;4897111;29;20130;-74
2023/08/06 06:23:49;;;;;;;13.80;7.20;;;19.90;99.90;;;;;;4901204;29;20493;-74
2023/08/06 06:26:16;;;;;;;8.57;5.95;;;20.00;99.90;;;;;;4907206;29;20064;-76
2023/08/06 06:28:44;;;;;;;11.68;5.88;;;20.10;99.90;;;;;;4911762;29;20511;-75
2023/08/06 06:31:21;;;;;;;12.52;6.55;;;20.00;99.90;;;;;;4916346;29;20048;-74
2023/08/06 06:34:06;;;;;;;12.18;5.45;;;20.00;99.90;;;;;;4921958;29;20088;-75
2023/08/06 06:36:50;;;;;;;8.95;5.65;;;19.70;99.90;;;;;;4916648;29;20059;-74
2023/08/06 06:39:18;;;;;;;9.68;5.68;;;20.20;99.90;;;;;;4916622;29;20044;-75
2023/08/06 06:41:45;;;;;;;12.50;6.10;;;20.30;99.90;;;;;;4916176;29;20076;-78
2023/08/06 06:44:14;;;;;;;12.68;4.80;;;20.60;99.90;;;;;;4924661;29;20048;-76
2023/08/06 06:46:42;;;;;;;11.30;5.18;;;20.70;99.90;;;;;;4899407;29;20051;-77
2023/08/06 06:49:09;;;;;;;8.93;5.00;;;21.00;99.90;;;;;;4928015;29;20080;-75
2023/08/06 06:51:36;;;;;;;11.18;4.93;;;21.10;99.90;;;;;;4899946;29;20085;-76
2023/08/06 06:54:06;;;;;;;10.55;4.82;;;21.10;99.90;;;;;;4925861;29;20059;-76
2023/08/06 06:56:33;;;;;;;8.93;6.07;;;21.40;99.90;;;;;;4913281;29;20052;-75
2023/08/06 06:59:04;;;;;;;10.00;5.38;;;21.50;99.90;;;;;;4910461;29;20059;-74
2023/08/06 07:01:37;;;;;;;7.47;5.03;;;21.50;99.90;;;;;;4917326;29;20401;-78
2023/08/06 07:04:04;;;;;;;10.68;6.85;;;21.60;99.90;;;;;;4902692;29;20493;-76
2023/08/06 07:06:32;;;;;;;9.02;5.88;;;21.70;99.90;;;;;;4915671;29;20461;-77
2023/08/06 07:08:59;;;;;;;10.88;5.63;;;21.70;99.90;;;;;;4917600;29;20068;-74
2023/08/06 07:11:27;;;;;;;8.13;4.97;;;21.70;99.90;;;;;;4916327;29;20080;-76
2023/08/06 07:13:58;;;;;;;34.67;23.23;;;21.80;99.90;;;;;;4916613;29;20131;-75
2023/08/06 07:16:26;;;;;;;23.75;17.58;;;22.10;99.90;;;;;;4899385;29;20056;-77
2023/08/06 07:18:56;;;;;;;11.52;8.00;;;21.80;99.90;;;;;;4918486;29;20071;-76
2023/08/06 07:21:23;;;;;;;34.95;23.77;;;21.70;99.90;;;;;;4915614;29;20441;-75
2023/08/06 07:23:50;;;;;;;41.42;28.90;;;21.70;99.90;;;;;;4916715;29;20052;-76
2023/08/06 07:26:18;;;;;;;31.92;21.15;;;21.50;99.90;;;;;;4898988;29;20108;-77
2023/08/06 07:28:45;;;;;;;15.35;11.20;;;21.70;99.90;;;;;;4924503;29;20064;-77
2023/08/06 07:31:12;;;;;;;10.70;7.38;;;21.80;99.90;;;;;;4916358;29;20135;-77
2023/08/06 07:33:40;;;;;;;10.30;7.20;;;21.90;99.90;;;;;;4923817;29;20387;-77
2023/08/06 07:36:11;;;;;;;10.40;6.43;;;22.00;99.90;;;;;;4916376;29;20127;-77
2023/08/06 07:38:42;;;;;;;34.67;24.95;;;21.90;99.90;;;;;;4923999;29;20066;-77
2023/08/06 07:41:09;;;;;;;39.08;25.67;;;21.70;99.90;;;;;;4898883;29;20064;-75
2023/08/06 07:43:37;;;;;;;76.30;54.20;;;21.90;99.90;;;;;;4916358;29;20056;-75
2023/08/06 07:46:04;;;;;;;15.43;11.00;;;21.90;99.90;;;;;;4893829;29;20143;-76
2023/08/06 07:48:32;;;;;;;15.85;9.73;;;21.70;99.90;;;;;;4913166;29;20052;-77
2023/08/06 07:50:59;;;;;;;15.80;9.48;;;21.80;99.90;;;;;;4911598;29;20540;-75
2023/08/06 07:53:29;;;;;;;12.48;8.40;;;22.10;99.90;;;;;;4913596;29;20079;-73
2023/08/06 07:55:57;;;;;;;9.35;5.95;;;21.90;99.90;;;;;;4889519;29;20048;-74
2023/08/06 07:58:43;;;;;;;10.98;6.70;;;21.80;99.90;;;;;;4915740;29;20044;-75
2023/08/06 08:01:10;;;;;;;35.30;24.67;;;22.10;99.90;;;;;;4907038;29;20052;-76
2023/08/06 08:03:37;;;;;;;15.43;11.18;;;22.10;99.90;;;;;;4917888;29;20067;-74
2023/08/06 08:06:04;;;;;;;13.07;7.45;;;22.10;99.90;;;;;;4914559;29;20056;-74
2023/08/06 08:08:32;;;;;;;8.20;5.72;;;22.10;99.90;;;;;;4916088;29;20499;-73
2023/08/06 08:11:00;;;;;;;10.15;4.75;;;22.10;99.90;;;;;;4915164;29;20139;-75
2023/08/06 08:13:28;;;;;;;8.98;4.32;;;22.20;99.90;;;;;;4916009;29;20496;-75
2023/08/06 08:15:59;;;;;;;9.18;5.05;;;22.30;99.90;;;;;;4915540;29;20109;-77
2023/08/06 08:18:26;;;;;;;8.00;3.63;;;22.20;99.90;;;;;;4917714;29;20096;-76
2023/08/06 08:20:54;;;;;;;7.78;4.07;;;22.30;99.90;;;;;;4912993;29;20056;-73
2023/08/06 08:23:21;;;;;;;9.25;3.90;;;22.20;99.90;;;;;;4920980;29;20151;-74
2023/08/06 08:25:48;;;;;;;7.30;4.43;;;22.20;99.90;;;;;;4917709;29;20056;-76
2023/08/06 08:28:16;;;;;;;7.57;4.22;;;22.20;99.90;;;;;;4918283;29;20083;-76
2023/08/06 08:30:43;;;;;;;6.32;3.78;;;22.30;99.90;;;;;;4916969;29;20071;-76
2023/08/06 08:33:10;;;;;;;6.68;3.95;;;22.40;99.90;;;;;;4918329;29;20426;-78
2023/08/06 08:35:38;;;;;;;34.08;23.33;;;22.50;99.90;;;;;;4918813;29;20048;-75
2023/08/06 08:38:05;;;;;;;26.25;17.40;;;22.50;99.90;;;;;;4918132;29;20500;-75
2023/08/06 08:40:35;;;;;;;9.98;7.05;;;22.50;99.90;;;;;;4902126;29;20052;-76
2023/08/06 08:43:03;;;;;;;8.57;4.88;;;22.40;99.90;;;;;;4918052;29;20139;-75
2023/08/06 08:45:35;;;;;;;8.68;4.70;;;22.50;99.90;;;;;;4916896;29;20512;-77
2023/08/06 08:48:05;;;;;;;8.02;3.92;;;22.40;99.90;;;;;;4917233;29;20100;-77
2023/08/06 08:50:33;;;;;;;8.77;4.85;;;22.60;99.90;;;;;;4918545;29;20143;-78
2023/08/06 08:53:01;;;;;;;5.50;3.55;;;22.80;99.90;;;;;;4928217;29;20060;-74
2023/08/06 08:55:28;;;;;;;8.05;4.40;;;22.90;99.90;;;;;;4919970;29;20044;-74
2023/08/06 08:57:56;;;;;;;7.15;3.80;;;22.90;99.90;;;;;;4911225;29;20072;-77
2023/08/06 09:00:25;;;;;;;6.10;3.30;;;22.90;99.90;;;;;;4926606;29;20083;-75
2023/08/06 09:02:54;;;;;;;4.93;3.13;;;22.90;99.90;;;;;;4924775;29;20052;-75
2023/08/06 09:05:23;;;;;;;6.28;3.97;;;22.90;99.90;;;;;;4919291;29;20055;-78
2023/08/06 09:07:52;;;;;;;7.05;3.38;;;23.00;99.90;;;;;;4906495;29;20064;-72
2023/08/06 09:10:24;;;;;;;6.97;3.30;;;23.20;99.90;;;;;;4919048;29;20059;-75
2023/08/06 09:12:53;;;;;;;5.32;3.15;;;23.50;99.90;;;;;;4924126;29;20062;-80
2023/08/06 09:15:26;;;;;;;4.90;2.95;;;23.60;99.90;;;;;;4905048;29;20099;-78
2023/08/06 09:17:55;;;;;;;4.57;2.75;;;23.50;99.90;;;;;;4923225;29;20531;-79
2023/08/06 09:20:25;;;;;;;5.10;2.97;;;23.50;99.90;;;;;;4903827;29;20055;-79
2023/08/06 09:22:53;;;;;;;37.47;25.23;;;23.30;99.90;;;;;;4904209;29;20111;-77
2023/08/06 09:25:28;;;;;;;21.30;14.55;;;23.40;99.90;;;;;;4883329;29;20056;-78
2023/08/06 09:27:59;;;;;;;73.18;46.70;;;23.50;99.90;;;;;;4908518;29;20060;-77
2023/08/06 09:30:32;;;;;;;7.50;4.97;;;23.50;99.90;;;;;;4914087;29;20052;-77
2023/08/06 09:33:00;;;;;;;66.63;46.90;;;23.70;99.90;;;;;;4872700;29;20493;-77
2023/08/06 09:35:36;;;;;;;11.13;6.85;;;23.80;99.90;;;;;;4914721;29;20045;-77
2023/08/06 09:38:10;;;;;;;9.40;4.55;;;24.10;99.90;;;;;;4907918;29;20052;-77
2023/08/06 09:40:40;;;;;;;17.58;10.63;;;24.30;99.90;;;;;;4899719;29;20055;-75
2023/08/06 09:43:08;;;;;;;20.88;12.95;;;24.40;99.90;;;;;;4892312;29;20458;-75
2023/08/06 09:45:38;;;;;;;8.68;5.78;;;24.60;99.90;;;;;;4912378;29;20052;-76
2023/08/06 09:48:08;;;;;;;34.92;23.33;;;24.70;99.90;;;;;;4924021;29;20052;-78
2023/08/06 09:50:37;;;;;;;72.50;50.90;;;24.50;99.90;;;;;;4903726;29;20040;-78
2023/08/06 09:53:08;;;;;;;9.80;6.53;;;24.70;99.90;;;;;;4909333;29;20048;-80
2023/08/06 09:55:36;;;;;;;8.38;4.40;;;24.90;99.90;;;;;;4917829;29;20052;-81
2023/08/06 09:58:05;;;;;;;5.07;2.97;;;25.20;99.90;;;;;;4905075;29;20127;-73
2023/08/06 10:00:34;;;;;;;5.93;2.50;;;25.00;99.90;;;;;;4917844;29;20053;-78
2023/08/06 10:03:07;;;;;;;6.10;3.58;;;25.00;99.90;;;;;;4902922;29;20441;-78
2023/08/06 10:05:36;;;;;;;5.00;2.15;;;24.90;99.90;;;;;;4904803;29;20500;-76
2023/08/06 10:08:05;;;;;;;4.68;2.20;;;24.80;99.90;;;;;;4909503;29;20467;-78
2023/08/06 10:10:33;;;;;;;5.00;2.55;;;24.80;99.90;;;;;;4915715;29;20079;-77
2023/08/06 10:13:01;;;;;;;4.32;2.40;;;24.80;99.90;;;;;;4908536;29;20056;-77
2023/08/06 10:15:32;;;;;;;4.68;2.40;;;25.10;99.90;;;;;;4914743;29;20139;-77
2023/08/06 10:18:02;;;;;;;4.70;2.47;;;25.20;99.90;;;;;;4910333;29;20539;-74
2023/08/06 10:20:34;;;;;;;5.35;2.60;;;25.40;99.90;;;;;;4917541;29;20048;-77
2023/08/06 10:23:04;;;;;;;5.03;2.33;;;25.70;99.90;;;;;;4917932;29;20482;-73
2023/08/06 10:25:33;;;;;;;5.28;2.20;;;26.30;99.90;;;;;;4908986;29;20053;-75
2023/08/06 10:28:08;;;;;;;5.47;2.37;;;26.40;99.90;;;;;;4897867;29;20064;-75
2023/08/06 10:30:45;;;;;;;5.07;2.10;;;26.10;99.90;;;;;;4914217;29;20142;-74
2023/08/06 10:33:12;;;;;;;19.50;14.10;;;26.00;99.90;;;;;;4899408;29;20052;-76
2023/08/06 10:35:49;;;;;;;50.65;37.15;;;25.90;99.90;;;;;;4901326;29;20057;-78
2023/08/06 10:38:21;;;;;;;8.10;4.43;;;25.90;99.90;;;;;;4900110;29;20071;-80
2023/08/06 10:40:52;;;;;;;8.63;6.35;;;26.00;99.60;;;;;;4901177;29;20407;-75
2023/08/06 10:43:43;;;;;;;11.07;7.15;;;26.30;99.40;;;;;;4899646;29;20120;-79
2023/08/06 10:46:21;;;;;;;6.40;3.65;;;26.30;99.60;;;;;;4900823;29;20052;-76
2023/08/06 10:48:49;;;;;;;4.88;2.50;;;26.50;98.50;;;;;;4913832;29;20052;-76
2023/08/06 10:51:16;;;;;;;5.20;2.15;;;26.40;99.00;;;;;;4917041;29;20075;-76
2023/08/06 10:53:46;;;;;;;4.43;2.63;;;26.30;98.20;;;;;;4906600;29;20056;-76
2023/08/06 10:56:14;;;;;;;4.63;2.53;;;26.60;98.90;;;;;;4909396;29;20048;-76
2023/08/06 10:58:42;;;;;;;5.38;2.85;;;27.00;98.50;;;;;;4907211;29;20056;-76
2023/08/06 11:01:10;;;;;;;4.90;2.60;;;27.00;98.20;;;;;;4912178;29;20396;-74
2023/08/06 11:03:38;;;;;;;4.95;2.10;;;27.30;97.80;;;;;;4907197;29;20120;-77
2023/08/06 11:06:10;;;;;;;4.78;2.65;;;27.30;96.50;;;;;;4910554;29;20049;-78
2023/08/06 11:08:47;;;;;;;6.57;2.42;;;27.00;97.50;;;;;;4896591;29;20067;-75
2023/08/06 11:11:16;;;;;;;5.85;2.40;;;27.00;98.50;;;;;;4903284;29;20041;-78
2023/08/06 11:13:46;;;;;;;6.68;4.10;;;27.00;98.40;;;;;;4909579;29;20083;-83
2023/08/06 11:16:15;;;;;;;15.55;10.52;;;26.80;97.00;;;;;;4913802;29;20048;-79
2023/08/06 11:18:43;;;;;;;15.83;11.80;;;27.00;97.50;;;;;;4917434;29;20044;-76
2023/08/06 11:21:13;;;;;;;5.95;3.83;;;27.20;97.50;;;;;;4911314;29;20064;-87
2023/08/06 11:23:41;;;;;;;5.30;2.75;;;27.10;97.60;;;;;;4907003;29;20066;-87
2023/08/06 11:26:08;;;;;;;6.40;2.20;;;26.90;96.40;;;;;;4913931;29;20058;-81
2023/08/06 11:28:36;;;;;;;3.88;2.10;;;26.80;96.60;;;;;;4921102;29;20079;-85
2023/08/06 11:31:03;;;;;;;4.28;2.20;;;26.80;97.10;;;;;;4913489;29;20055;-87
2023/08/06 11:33:31;;;;;;;6.47;2.33;;;27.30;97.30;;;;;;4911364;29;20104;-89
2023/08/06 11:35:59;;;;;;;7.07;2.63;;;27.70;96.50;;;;;;4908993;29;20044;-83
2023/08/06 11:38:30;;;;;;;17.48;12.68;;;27.80;96.60;;;;;;4917510;29;20048;-82
2023/08/06 11:40:59;;;;;;;8.35;3.85;;;27.80;96.10;;;;;;4920173;29;20068;-79
2023/08/06 11:43:26;;;;;;;5.80;3.67;;;27.70;96.20;;;;;;4913787;29;20079;-82
2023/08/06 11:45:56;;;;;;;5.90;3.00;;;27.80;96.10;;;;;;4919747;29;20100;-75
2023/08/06 11:48:23;;;;;;;9.05;5.93;;;28.10;95.30;;;;;;4907686;29;20084;-82
2023/08/06 11:50:54;;;;;;;16.98;11.95;;;28.00;95.40;;;;;;4907617;29;20052;-79
2023/08/06 11:53:27;;;;;;;6.72;3.65;;;27.70;95.30;;;;;;4922726;29;20056;-83
2023/08/06 11:55:54;;;;;;;14.57;8.65;;;27.30;95.10;;;;;;4920324;29;20076;-82
2023/08/06 11:58:21;;;;;;;13.25;7.57;;;27.10;95.70;;;;;;4917890;29;20052;-77
2023/08/06 12:00:48;;;;;;;15.55;9.65;;;26.80;97.90;;;;;;4924537;29;20084;-81
2023/08/06 12:03:19;;;;;;;44.35;33.13;;;26.70;97.00;;;;;;4897859;29;20044;-76
2023/08/06 12:05:47;;;;;;;18.23;10.30;;;26.60;96.10;;;;;;4908740;29;20052;-77
2023/08/06 12:08:14;;;;;;;53.00;35.78;;;26.70;96.40;;;;;;4910704;29;20056;-84
2023/08/06 12:10:41;;;;;;;57.03;42.47;;;26.80;96.30;;;;;;4917840;29;20055;-80
2023/08/06 12:13:08;;;;;;;45.92;20.40;;;27.00;95.90;;;;;;4913285;29;20412;-79
2023/08/06 12:15:36;;;;;;;48.42;13.77;;;27.10;96.30;;;;;;4907978;29;20059;-81
2023/08/06 12:18:03;;;;;;;52.40;40.38;;;27.40;96.00;;;;;;4913724;29;20059;-73
2023/08/06 12:20:30;;;;;;;23.70;13.88;;;27.40;95.20;;;;;;4911415;29;20445;-82
2023/08/06 12:22:58;;;;;;;29.92;20.35;;;27.50;96.10;;;;;;4919046;29;20158;-79
2023/08/06 12:25:25;;;;;;;11.18;6.90;;;27.50;95.10;;;;;;4912539;29;20056;-81
2023/08/06 12:27:53;;;;;;;9.93;4.22;;;27.50;94.50;;;;;;4919057;29;20629;-89
2023/08/06 12:30:20;;;;;;;4.18;2.38;;;27.40;95.10;;;;;;4917304;29;20218;-81
2023/08/06 12:32:47;;;;;;;5.57;2.40;;;27.20;95.40;;;;;;4920324;29;20103;-77
2023/08/06 12:35:14;;;;;;;7.70;4.53;;;27.20;96.10;;;;;;4912015;29;20072;-80
2023/08/06 12:37:43;;;;;;;8.77;3.28;;;27.20;96.00;;;;;;4916384;29;20060;-77
2023/08/06 12:40:11;;;;;;;4.75;2.50;;;27.20;95.50;;;;;;4919404;29;20052;-80
2023/08/06 12:42:59;;;;;;;15.57;5.85;;;27.10;95.60;;;;;;4917419;29;20048;-81
2023/08/06 12:45:26;;;;;;;14.07;4.85;;;27.00;95.80;;;;;;4916347;29;20111;-80
2023/08/06 12:47:54;;;;;;;7.70;3.10;;;27.00;95.80;;;;;;4913364;29;20461;-79
2023/08/06 12:50:23;;;;;;;7.63;2.92;;;26.90;95.40;;;;;;4921399;29;21586;-81